createdAt,value
2023-02-22T00:01:07.599Z,100.00
2023-02-22T00:03:34.879Z,100.00
2023-02-22T00:06:06.209Z,100.00
2023-02-22T00:08:35.521Z,100.00
2023-02-22T00:11:10.008Z,100.00
2023-02-22T00:13:38.690Z,100.00
2023-02-22T00:16:06.140Z,100.00
2023-02-22T00:18:32.642Z,100.00
2023-02-22T00:21:00.748Z,100.00
2023-02-22T00:23:32.260Z,100.00
2023-02-22T00:26:01.341Z,100.00
2023-02-22T00:28:30.850Z,100.00
2023-02-22T00:30:57.527Z,100.00
2023-02-22T00:33:23.911Z,100.00
2023-02-22T00:35:50.426Z,100.00
2023-02-22T00:38:18.684Z,100.00
2023-02-22T00:40:47.651Z,100.00
2023-02-22T00:43:15.140Z,100.00
2023-02-22T00:45:43.801Z,100.00
2023-02-22T00:48:10.893Z,100.00
2023-02-22T00:50:37.794Z,100.00
2023-02-22T00:53:07.772Z,100.00
2023-02-22T00:55:36.673Z,100.00
2023-02-22T00:58:06.910Z,100.00
2023-02-22T01:00:39.867Z,100.00
2023-02-22T01:03:10.437Z,100.00
2023-02-22T01:05:38.222Z,100.00
2023-02-22T01:08:07.035Z,100.00
2023-02-22T01:10:34.614Z,100.00
2023-02-22T01:13:01.956Z,100.00
2023-02-22T01:15:33.945Z,100.00
2023-02-22T01:18:05.856Z,100.00
2023-02-22T01:20:33.818Z,100.00
2023-02-22T01:23:03.557Z,100.00
2023-02-22T01:25:31.341Z,100.00
2023-02-22T01:28:02.539Z,100.00
2023-02-22T01:30:35.690Z,100.00
2023-02-22T01:33:04.744Z,100.00
2023-02-22T01:35:38.552Z,100.00
2023-02-22T01:38:05.071Z,100.00
2023-02-22T01:40:42.723Z,100.00
2023-02-22T01:43:23.740Z,100.00
2023-02-22T01:45:57.660Z,100.00
2023-02-22T01:48:26.820Z,100.00
2023-02-22T01:51:01.339Z,100.00
2023-02-22T01:53:37.260Z,100.00
2023-02-22T01:56:11.550Z,100.00
2023-02-22T01:58:42.735Z,100.00
2023-02-22T02:01:09.771Z,100.00
2023-02-22T02:03:39.927Z,100.00
2023-02-22T02:06:13.078Z,100.00
2023-02-22T02:08:58.873Z,100.00
2023-02-22T02:11:27.131Z,100.00
2023-02-22T02:13:56.734Z,100.00
2023-02-22T02:16:35.232Z,100.00
2023-02-22T02:19:01.826Z,100.00
2023-02-22T02:22:08.626Z,100.00
2023-02-22T02:25:05.109Z,100.00
2023-02-22T02:28:29.075Z,100.00
2023-02-22T02:31:40.328Z,100.00
2023-02-22T02:34:17.136Z,100.00
2023-02-22T02:36:52.782Z,100.00
2023-02-22T02:39:37.759Z,100.00
2023-02-22T02:42:09.828Z,100.00
2023-02-22T02:44:42.104Z,100.00
2023-02-22T02:47:23.303Z,100.00
2023-02-22T02:49:59.313Z,100.00
2023-02-22T02:52:30.907Z,100.00
2023-02-22T02:55:04.879Z,100.00
2023-02-22T02:57:31.439Z,100.00
2023-02-22T02:59:57.955Z,100.00
2023-02-22T03:02:48.755Z,100.00
2023-02-22T03:05:41.457Z,100.00
2023-02-22T03:08:08.087Z,100.00
2023-02-22T03:11:15.320Z,100.00
2023-02-22T03:14:22.172Z,100.00
2023-02-22T03:16:54.510Z,100.00
2023-02-22T03:19:49.954Z,100.00
2023-02-22T03:22:30.440Z,100.00
2023-02-22T03:25:07.413Z,100.00
2023-02-22T03:27:37.466Z,100.00
2023-02-22T03:30:10.451Z,100.00
2023-02-22T03:32:50.633Z,100.00
2023-02-22T03:35:23.325Z,100.00
2023-02-22T03:37:55.916Z,100.00
2023-02-22T03:40:33.445Z,100.00
2023-02-22T03:43:10.198Z,100.00
2023-02-22T03:45:40.245Z,100.00
2023-02-22T03:48:17.534Z,100.00
2023-02-22T03:50:44.378Z,100.00
2023-02-22T03:53:11.467Z,100.00
2023-02-22T03:55:40.695Z,100.00
2023-02-22T03:58:12.284Z,100.00
2023-02-22T04:00:44.554Z,100.00
2023-02-22T04:03:13.518Z,100.00
2023-02-22T04:05:40.094Z,100.00
2023-02-22T04:08:06.438Z,100.00
2023-02-22T04:10:37.866Z,100.00
2023-02-22T04:13:07.218Z,100.00
2023-02-22T04:15:37.388Z,100.00
2023-02-22T04:18:04.175Z,100.00
2023-02-22T04:20:31.712Z,100.00
2023-02-22T04:22:58.613Z,100.00
2023-02-22T04:25:28.222Z,100.00
2023-02-22T04:27:57.447Z,100.00
2023-02-22T04:30:23.888Z,100.00
2023-02-22T04:32:50.472Z,100.00
2023-02-22T04:35:17.146Z,100.00
2023-02-22T04:37:43.647Z,100.00
2023-02-22T04:40:11.615Z,100.00
2023-02-22T04:42:39.759Z,100.00
2023-02-22T04:45:12.203Z,100.00
2023-02-22T04:47:46.911Z,100.00
2023-02-22T04:50:19.333Z,100.00
2023-02-22T04:52:52.271Z,100.00
2023-02-22T04:55:18.934Z,100.00
2023-02-22T04:57:49.980Z,100.00
2023-02-22T05:00:18.814Z,100.00
2023-02-22T05:02:45.850Z,100.00
2023-02-22T05:05:21.469Z,100.00
2023-02-22T05:07:50.886Z,100.00
2023-02-22T05:10:17.701Z,100.00
2023-02-22T05:12:44.347Z,100.00
2023-02-22T05:15:11.569Z,100.00
2023-02-22T05:17:38.058Z,100.00
2023-02-22T05:20:04.987Z,100.00
2023-02-22T05:22:44.273Z,100.00
2023-02-22T05:25:11.438Z,100.00
2023-02-22T05:27:37.961Z,100.00
2023-02-22T05:30:09.157Z,100.00
2023-02-22T05:32:35.828Z,100.00
2023-02-22T05:35:02.689Z,100.00
2023-02-22T05:37:29.094Z,100.00
2023-02-22T05:39:55.693Z,100.00
2023-02-22T05:42:25.461Z,100.00
2023-02-22T05:44:57.087Z,100.00
2023-02-22T05:47:23.544Z,100.00
2023-02-22T05:49:51.316Z,100.00
2023-02-22T05:52:18.223Z,100.00
2023-02-22T05:54:44.669Z,100.00
2023-02-22T05:57:11.031Z,100.00
2023-02-22T05:59:37.763Z,100.00
2023-02-22T06:02:06.563Z,100.00
2023-02-22T06:04:33.217Z,100.00
2023-02-22T06:06:59.647Z,100.00
2023-02-22T06:09:26.188Z,100.00
2023-02-22T06:11:54.485Z,100.00
2023-02-22T06:14:21.146Z,100.00
2023-02-22T06:16:56.395Z,100.00
2023-02-22T06:19:24.157Z,100.00
2023-02-22T06:21:51.800Z,100.00
2023-02-22T06:24:18.608Z,100.00
2023-02-22T06:26:45.380Z,100.00
2023-02-22T06:29:11.945Z,100.00
2023-02-22T06:31:38.485Z,100.00
2023-02-22T06:34:05.050Z,100.00
2023-02-22T06:36:31.632Z,100.00
2023-02-22T06:38:58.271Z,100.00
2023-02-22T06:41:24.688Z,100.00
2023-02-22T06:43:51.165Z,100.00
2023-02-22T06:46:17.721Z,100.00
2023-02-22T06:48:44.712Z,100.00
2023-02-22T06:51:11.261Z,100.00
2023-02-22T06:53:37.734Z,100.00
2023-02-22T06:56:04.480Z,100.00
2023-02-22T06:58:30.888Z,100.00
2023-02-22T07:00:57.358Z,100.00
2023-02-22T07:03:23.963Z,100.00
2023-02-22T07:05:50.448Z,100.00
2023-02-22T07:08:16.901Z,100.00
2023-02-22T07:10:43.390Z,100.00
2023-02-22T07:13:09.959Z,100.00
2023-02-22T07:15:38.270Z,100.00
2023-02-22T07:18:17.139Z,100.00
2023-02-22T07:20:43.656Z,100.00
2023-02-22T07:23:10.555Z,100.00
2023-02-22T07:25:37.272Z,100.00
2023-02-22T07:28:04.002Z,100.00
2023-02-22T07:30:34.034Z,100.00
2023-02-22T07:33:02.812Z,100.00
2023-02-22T07:35:42.728Z,100.00
2023-02-22T07:38:09.471Z,100.00
2023-02-22T07:40:38.092Z,100.00
2023-02-22T07:43:07.095Z,100.00
2023-02-22T07:45:35.631Z,100.00
2023-02-22T07:48:13.479Z,100.00
2023-02-22T07:50:43.999Z,100.00
2023-02-22T07:53:19.878Z,100.00
2023-02-22T07:55:50.879Z,100.00
2023-02-22T07:58:20.569Z,100.00
2023-02-22T08:00:48.384Z,100.00
2023-02-22T08:03:17.802Z,100.00
2023-02-22T08:05:50.148Z,100.00
2023-02-22T08:08:19.979Z,100.00
2023-02-22T08:10:47.102Z,100.00
2023-02-22T08:13:13.604Z,100.00
2023-02-22T08:15:48.462Z,100.00
2023-02-22T08:18:19.474Z,100.00
2023-02-22T08:20:48.575Z,100.00
2023-02-22T08:23:17.416Z,100.00
2023-02-22T08:25:44.509Z,100.00
2023-02-22T08:28:15.195Z,100.00
2023-02-22T08:30:45.552Z,100.00
2023-02-22T08:33:23.844Z,100.00
2023-02-22T08:35:52.860Z,97.29
2023-02-22T08:38:28.341Z,97.81
2023-02-22T08:40:55.426Z,95.12
2023-02-22T08:43:25.104Z,95.54
2023-02-22T08:45:52.439Z,93.69
2023-02-22T08:48:42.976Z,92.06
2023-02-22T08:51:09.992Z,91.51
2023-02-22T08:53:46.772Z,90.81
2023-02-22T08:56:16.572Z,90.29
2023-02-22T08:58:43.103Z,88.62
2023-02-22T09:01:19.271Z,89.08
2023-02-22T09:03:48.867Z,87.80
2023-02-22T09:06:18.816Z,85.82
2023-02-22T09:08:48.782Z,85.95
2023-02-22T09:11:19.096Z,85.31
2023-02-22T09:13:45.962Z,84.67
2023-02-22T09:16:12.454Z,84.04
2023-02-22T09:18:44.551Z,84.38
2023-02-22T09:21:14.607Z,82.89
2023-02-22T09:23:41.634Z,82.70
2023-02-22T09:26:09.469Z,82.10
2023-02-22T09:28:43.771Z,82.71
2023-02-22T09:31:10.465Z,81.50
2023-02-22T09:33:36.884Z,81.92
2023-02-22T09:36:08.909Z,80.53
2023-02-22T09:38:39.495Z,78.82
2023-02-22T09:41:35.209Z,80.15
2023-02-22T09:44:22.435Z,79.47
2023-02-22T09:46:56.264Z,76.91
2023-02-22T09:49:37.683Z,77.30
2023-02-22T09:52:14.329Z,77.64
2023-02-22T09:54:51.878Z,75.06
2023-02-22T09:57:29.079Z,75.97
2023-02-22T10:00:00.984Z,74.12
2023-02-22T10:02:32.676Z,73.54
2023-02-22T10:05:13.856Z,73.57
2023-02-22T10:07:55.674Z,73.11
2023-02-22T10:10:26.619Z,71.47
2023-02-22T10:13:10.555Z,73.15
2023-02-22T10:16:01.822Z,71.13
2023-02-22T10:19:26.531Z,70.50
2023-02-22T10:22:08.725Z,68.96
2023-02-22T10:24:50.656Z,70.37
2023-02-22T10:27:39.656Z,70.16
2023-02-22T10:30:25.286Z,69.62
2023-02-22T10:32:59.772Z,67.52
2023-02-22T10:35:41.200Z,68.45
2023-02-22T10:38:24.729Z,68.31
2023-02-22T10:40:57.978Z,67.63
2023-02-22T10:43:25.680Z,66.87
2023-02-22T10:46:01.659Z,66.99
2023-02-22T10:48:32.837Z,66.77
2023-02-22T10:51:11.552Z,66.11
2023-02-22T10:53:43.663Z,66.01
2023-02-22T10:56:10.038Z,65.96
2023-02-22T10:58:42.260Z,65.78
2023-02-22T11:01:23.638Z,65.73
2023-02-22T11:04:13.260Z,64.79
2023-02-22T11:06:54.345Z,64.80
2023-02-22T11:09:22.822Z,63.47
2023-02-22T11:12:07.189Z,64.30
2023-02-22T11:14:39.187Z,62.81
2023-02-22T11:17:08.793Z,65.40
2023-02-22T11:19:42.032Z,64.67
2023-02-22T11:22:20.070Z,63.10
2023-02-22T11:24:57.830Z,63.93
2023-02-22T11:27:38.776Z,64.68
2023-02-22T11:30:47.125Z,65.73
2023-02-22T11:33:26.204Z,62.11
2023-02-22T11:35:58.454Z,63.04
2023-02-22T11:38:32.689Z,64.14
2023-02-22T11:41:19.393Z,63.67
2023-02-22T11:43:51.007Z,63.13
2023-02-22T11:46:26.169Z,63.63
2023-02-22T11:49:06.807Z,64.32
2023-02-22T11:51:48.215Z,62.87
2023-02-22T11:54:28.828Z,64.03
2023-02-22T11:57:31.794Z,62.98
2023-02-22T12:00:24.738Z,61.47
2023-02-22T12:03:22.070Z,63.78
2023-02-22T12:06:10.341Z,63.21
2023-02-22T12:09:08.516Z,64.23
2023-02-22T12:12:01.001Z,64.15
2023-02-22T12:14:43.699Z,62.38
2023-02-22T12:17:32.297Z,62.07
2023-02-22T12:20:21.925Z,62.74
2023-02-22T12:23:16.116Z,63.72
2023-02-22T12:26:03.579Z,64.30
2023-02-22T12:28:43.693Z,63.29
2023-02-22T12:31:15.977Z,64.32
2023-02-22T12:33:54.078Z,61.91
2023-02-22T12:36:25.281Z,61.38
2023-02-22T12:39:00.571Z,62.98
2023-02-22T12:41:38.472Z,63.55
2023-02-22T12:44:22.259Z,61.13
2023-02-22T12:46:56.903Z,63.31
2023-02-22T12:49:38.544Z,62.74
2023-02-22T12:52:22.398Z,63.70
2023-02-22T12:54:58.231Z,62.60
2023-02-22T12:57:47.532Z,62.99
2023-02-22T13:00:41.768Z,61.56
2023-02-22T13:03:30.108Z,62.74
2023-02-22T13:06:16.544Z,61.91
2023-02-22T13:09:16.690Z,63.20
2023-02-22T13:12:17.382Z,61.08
2023-02-22T13:15:09.536Z,61.78
2023-02-22T13:18:01.934Z,62.91
2023-02-22T13:20:31.310Z,61.28
2023-02-22T13:23:14.791Z,61.66
2023-02-22T13:25:52.378Z,61.58
2023-02-22T13:28:31.469Z,61.14
2023-02-22T13:31:37.703Z,60.18
2023-02-22T13:34:36.384Z,61.60
2023-02-22T13:37:14.245Z,60.31
2023-02-22T13:39:46.264Z,60.16
2023-02-22T13:42:15.298Z,58.71
2023-02-22T13:45:07.819Z,59.51
2023-02-22T13:47:57.679Z,59.53
2023-02-22T13:50:43.621Z,59.97
2023-02-22T13:53:25.947Z,60.95
2023-02-22T13:55:57.058Z,61.03
2023-02-22T13:58:24.746Z,59.49
2023-02-22T14:00:57.024Z,61.39
2023-02-22T14:03:36.394Z,60.95
2023-02-22T14:06:09.693Z,59.63
2023-02-22T14:08:36.117Z,59.42
2023-02-22T14:11:31.651Z,61.10
2023-02-22T14:14:00.980Z,60.97
2023-02-22T14:16:31.473Z,60.37
2023-02-22T14:19:25.153Z,60.32
2023-02-22T14:22:03.675Z,58.95
2023-02-22T14:24:43.048Z,58.65
2023-02-22T14:27:10.486Z,59.09
2023-02-22T14:29:37.302Z,60.12
2023-02-22T14:32:13.160Z,59.98
2023-02-22T14:34:57.999Z,59.04
2023-02-22T14:37:28.719Z,58.87
2023-02-22T14:40:12.929Z,59.02
2023-02-22T14:42:45.941Z,59.77
2023-02-22T14:45:33.871Z,57.09
2023-02-22T14:48:27.427Z,57.36
2023-02-22T14:51:05.906Z,58.12
2023-02-22T14:53:49.125Z,58.01
2023-02-22T14:56:28.507Z,58.30
2023-02-22T14:59:16.813Z,57.02
2023-02-22T15:02:05.723Z,56.80
2023-02-22T15:04:37.763Z,56.88
2023-02-22T15:07:33.390Z,56.95
2023-02-22T15:11:01.487Z,56.85
2023-02-22T15:13:37.576Z,57.92
2023-02-22T15:16:08.044Z,58.39
2023-02-22T15:18:42.017Z,58.66
2023-02-22T15:21:21.901Z,59.33
2023-02-22T15:23:55.056Z,59.80
2023-02-22T15:26:42.367Z,60.32
2023-02-22T15:29:19.799Z,59.97
2023-02-22T15:31:48.827Z,59.45
2023-02-22T15:34:25.399Z,59.64
2023-02-22T15:36:57.887Z,60.74
2023-02-22T15:39:34.600Z,59.79
2023-02-22T15:42:22.018Z,61.23
2023-02-22T15:44:59.313Z,59.80
2023-02-22T15:47:29.478Z,60.02
2023-02-22T15:50:25.633Z,59.82
2023-02-22T15:53:00.799Z,61.34
2023-02-22T15:58:30.170Z,62.13
2023-02-22T16:01:11.124Z,61.68
2023-02-22T16:03:49.242Z,62.79
2023-02-22T16:06:35.837Z,62.33
2023-02-22T16:09:36.081Z,62.43
2023-02-22T16:12:10.174Z,63.53
2023-02-22T16:14:41.676Z,62.90
2023-02-22T16:17:52.648Z,63.96
2023-02-22T16:20:29.419Z,63.64
2023-02-22T16:22:59.920Z,63.93
2023-02-22T16:25:42.162Z,64.43
2023-02-22T16:28:39.165Z,65.19
2023-02-22T16:31:06.021Z,65.25
2023-02-22T16:33:41.367Z,66.23
2023-02-22T16:36:09.300Z,66.28
2023-02-22T16:38:39.450Z,66.63
2023-02-22T16:41:13.672Z,66.87
2023-02-22T16:43:46.324Z,67.07
2023-02-22T16:46:21.838Z,67.00
2023-02-22T16:48:48.437Z,66.98
2023-02-22T16:51:27.790Z,67.88
2023-02-22T16:53:56.016Z,67.79
2023-02-22T16:56:41.118Z,68.33
2023-02-22T16:59:15.350Z,69.03
2023-02-22T17:01:42.692Z,69.21
2023-02-22T17:04:24.159Z,69.86
2023-02-22T17:06:53.197Z,69.86
2023-02-22T17:09:22.475Z,70.65
2023-02-22T17:11:51.492Z,70.58
2023-02-22T17:14:23.420Z,71.07
2023-02-22T17:16:51.313Z,71.25
2023-02-22T17:19:21.201Z,71.40
2023-02-22T17:21:50.560Z,71.28
2023-02-22T17:24:24.834Z,71.74
2023-02-22T17:26:53.136Z,71.53
2023-02-22T17:29:20.618Z,72.31
2023-02-22T17:31:49.965Z,72.50
2023-02-22T17:34:16.397Z,72.54
2023-02-22T17:36:43.537Z,72.69
2023-02-22T17:39:10.741Z,73.31
2023-02-22T17:41:40.337Z,73.03
2023-02-22T17:44:09.644Z,73.03
2023-02-22T17:46:37.423Z,73.14
2023-02-22T17:49:04.681Z,73.40
2023-02-22T17:51:31.182Z,74.04
2023-02-22T17:53:57.819Z,73.85
2023-02-22T17:56:26.818Z,74.49
2023-02-22T17:58:55.350Z,74.49
2023-02-22T18:01:24.881Z,75.21
2023-02-22T18:03:53.162Z,75.40
2023-02-22T18:06:24.012Z,75.94
2023-02-22T18:08:55.762Z,75.82
2023-02-22T18:11:26.315Z,75.90
2023-02-22T18:13:54.944Z,76.29
2023-02-22T18:16:21.703Z,76.46
2023-02-22T18:18:49.487Z,76.62
2023-02-22T18:21:16.503Z,77.84
2023-02-22T18:23:44.826Z,77.86
2023-02-22T18:26:16.886Z,78.40
2023-02-22T18:28:43.748Z,78.45
2023-02-22T18:31:15.554Z,79.00
2023-02-22T18:33:49.116Z,79.00
2023-02-22T18:36:17.069Z,79.25
2023-02-22T18:38:44.661Z,79.97
2023-02-22T18:41:13.918Z,81.07
2023-02-22T18:43:44.016Z,81.25
2023-02-22T18:46:19.521Z,80.37
2023-02-22T18:48:52.413Z,80.66
2023-02-22T18:51:18.835Z,82.05
2023-02-22T18:53:50.250Z,83.16
2023-02-22T18:56:21.693Z,82.87
2023-02-22T18:59:00.982Z,84.52
2023-02-22T19:01:31.345Z,83.61
2023-02-22T19:03:58.003Z,84.24
2023-02-22T19:06:24.996Z,84.96
2023-02-22T19:08:51.531Z,86.86
2023-02-22T19:11:28.813Z,85.88
2023-02-22T19:13:58.570Z,86.72
2023-02-22T19:16:28.556Z,86.69
2023-02-22T19:18:58.538Z,88.93
2023-02-22T19:21:34.392Z,87.61
2023-02-22T19:24:01.392Z,88.04
2023-02-22T19:26:36.587Z,88.81
2023-02-22T19:29:08.549Z,87.85
2023-02-22T19:31:35.316Z,88.15
2023-02-22T19:34:11.623Z,88.16
2023-02-22T19:36:45.545Z,86.65
2023-02-22T19:39:13.683Z,88.72
2023-02-22T19:41:43.218Z,88.05
2023-02-22T19:44:13.289Z,87.20
2023-02-22T19:46:43.198Z,89.73
2023-02-22T19:49:14.634Z,90.36
2023-02-22T19:51:50.332Z,91.19
2023-02-22T19:54:19.650Z,91.24
2023-02-22T19:56:51.060Z,91.24
2023-02-22T19:59:22.873Z,92.04
2023-02-22T20:01:55.386Z,91.13
2023-02-22T20:04:24.834Z,90.54
2023-02-22T20:06:57.600Z,91.52
2023-02-22T20:09:30.294Z,92.08
2023-02-22T20:11:57.029Z,93.63
2023-02-22T20:14:28.201Z,92.52
2023-02-22T20:16:55.728Z,94.13
2023-02-22T20:19:22.823Z,92.56
2023-02-22T20:21:52.216Z,93.87
2023-02-22T20:24:19.293Z,92.96
2023-02-22T20:26:49.003Z,94.17
2023-02-22T20:29:19.047Z,93.18
2023-02-22T20:31:49.546Z,95.27
2023-02-22T20:34:18.409Z,95.58
2023-02-22T20:36:47.624Z,95.69
2023-02-22T20:39:17.162Z,95.38
2023-02-22T20:41:47.343Z,96.55
2023-02-22T20:44:17.139Z,94.71
2023-02-22T20:46:46.906Z,96.31
2023-02-22T20:49:19.888Z,96.44
2023-02-22T20:51:48.123Z,97.24
2023-02-22T20:54:20.917Z,98.11
2023-02-22T20:56:52.679Z,97.58
2023-02-22T20:59:22.128Z,98.30
2023-02-22T21:04:33.647Z,99.31
2023-02-22T21:07:03.166Z,99.60
2023-02-22T21:09:29.847Z,99.23
2023-02-22T21:11:56.339Z,97.18
2023-02-22T21:14:24.309Z,97.00
2023-02-22T21:16:52.241Z,98.37
2023-02-22T21:19:26.562Z,98.39
2023-02-22T21:22:00.868Z,97.41
2023-02-22T21:24:28.479Z,96.98
2023-02-22T21:27:00.183Z,96.50
2023-02-22T21:29:28.370Z,97.12
2023-02-22T21:32:02.183Z,97.19
2023-02-22T21:34:33.621Z,94.96
2023-02-22T21:37:00.196Z,95.15
2023-02-22T21:39:29.825Z,94.97
2023-02-22T21:42:00.242Z,95.92
2023-02-22T21:44:31.506Z,95.98
2023-02-22T21:47:02.599Z,95.91
2023-02-22T21:49:29.395Z,98.28
2023-02-22T21:51:59.159Z,97.96
2023-02-22T21:54:30.069Z,97.73
2023-02-22T21:56:56.681Z,98.95
2023-02-22T21:59:23.734Z,99.54
2023-02-22T22:01:56.127Z,99.60
2023-02-22T22:04:31.137Z,96.76
2023-02-22T22:07:00.651Z,98.13
2023-02-22T22:09:40.088Z,95.87
2023-02-22T22:12:10.215Z,100.00
2023-02-22T22:14:38.865Z,98.10
2023-02-22T22:17:07.959Z,98.13
2023-02-22T22:19:39.362Z,97.44
2023-02-22T22:22:06.098Z,98.53
2023-02-22T22:24:34.632Z,98.68
2023-02-22T22:27:13.056Z,98.47
2023-02-22T22:29:43.528Z,99.54
2023-02-22T22:32:10.823Z,100.00
2023-02-22T22:34:37.841Z,100.00
2023-02-22T22:37:04.660Z,100.00
2023-02-22T22:39:31.409Z,99.56
2023-02-22T22:41:57.938Z,98.06
2023-02-22T22:44:24.354Z,97.55
2023-02-22T22:46:54.714Z,98.00
2023-02-22T22:49:25.670Z,97.08
2023-02-22T22:51:52.580Z,96.75
2023-02-22T22:54:18.945Z,97.59
2023-02-22T22:56:46.623Z,98.14
2023-02-22T22:59:13.360Z,100.00
2023-02-22T23:01:44.352Z,100.00
2023-02-22T23:04:16.380Z,100.00
2023-02-22T23:06:45.731Z,100.00
2023-02-22T23:09:18.943Z,100.00
2023-02-22T23:11:50.740Z,99.98
2023-02-22T23:14:21.250Z,100.00
2023-02-22T23:16:51.736Z,100.00
2023-02-22T23:19:20.473Z,100.00
2023-02-22T23:21:48.868Z,100.00
2023-02-22T23:24:21.993Z,100.00
2023-02-22T23:26:48.872Z,100.00
2023-02-22T23:29:18.097Z,100.00
2023-02-22T23:31:48.734Z,100.00
2023-02-22T23:34:23.202Z,100.00
2023-02-22T23:36:54.246Z,100.00
2023-02-22T23:39:22.618Z,100.00
2023-02-22T23:41:59.227Z,100.00
2023-02-22T23:44:30.100Z,100.00
2023-02-22T23:46:56.777Z,100.00
2023-02-22T23:49:27.032Z,100.00
2023-02-22T23:51:56.102Z,100.00
2023-02-22T23:54:36.233Z,100.00
2023-02-22T23:57:11.109Z,100.00
2023-02-22T23:59:41.598Z,100.00
